Fort Davis, Alabama
Current Conditions -  °F | °C
As of 1:15 PM on Saturday 20 Dec 2014 (Local Time) from KAUO Reporting Station
Overcast Overcast  
Wind Chill: 46°   Ceiling: 800
Heat Index: 48°   Visibility: 9mi
Dew Point: 43°   Wind: 5mph
Humidity: 82%   Direction: 50°NE
Pressure: 30.16"   Gusts: NA
Location:  32.24°N, 85.71°W
Report Text: KAUO 201915Z AUTO 05004KT 9SM OVC008 09/06 A3016 RMK AO1
Loading
Personal Weather Stations






























Interactive Weather Map New forecast layout! Learn more

10-Day Weather Forecast

Advertisements
Track Severe Weather on mobile